Time;durP1;ratioP1;P1;durP2;ratioP2;P2;SDS_P1;SDS_P2;PMS_P1;PMS_P2;Temp;Humidity;BMP_temperature;BMP_pressure;BME280_temperature;BME280_humidity;BME280_pressure;Samples;Min_cycle;Max_cycle;Signal;HPM_P1;HPM_P2
2024/04/10 00:00:52;;;;;;;2.33;0.70;;;10.30;99.90;;;;;;5455946;26;20019;-84
2024/04/10 00:03:18;;;;;;;1.92;0.80;;;10.20;99.90;;;;;;5456344;26;19995;-85
2024/04/10 00:05:44;;;;;;;1.33;0.50;;;10.20;99.90;;;;;;5454189;26;20412;-84
2024/04/10 00:08:09;;;;;;;2.13;0.70;;;10.20;99.90;;;;;;5456522;26;19995;-85
2024/04/10 00:10:36;;;;;;;1.67;0.70;;;10.10;99.90;;;;;;5453841;26;20001;-82
2024/04/10 00:13:01;;;;;;;3.80;1.05;;;10.10;99.90;;;;;;5455815;26;20005;-81
2024/04/10 00:15:27;;;;;;;4.13;0.82;;;10.10;99.90;;;;;;5455789;26;20022;-82
2024/04/10 00:17:53;;;;;;;2.05;0.60;;;10.10;99.90;;;;;;5454975;26;20005;-82
2024/04/10 00:20:18;;;;;;;2.10;0.63;;;10.10;99.90;;;;;;5456018;26;20561;-83
2024/04/10 00:22:44;;;;;;;5.28;1.27;;;10.00;99.90;;;;;;5453789;26;19999;-83
2024/04/10 00:25:09;;;;;;;3.40;0.95;;;10.00;99.90;;;;;;5454076;26;19991;-82
2024/04/10 00:27:35;;;;;;;3.17;0.80;;;10.00;99.90;;;;;;5452539;26;19995;-83
2024/04/10 00:30:01;;;;;;;1.42;0.73;;;10.00;99.90;;;;;;5454323;26;19994;-83
2024/04/10 00:32:26;;;;;;;5.35;0.80;;;9.90;99.90;;;;;;5455456;26;19998;-83
2024/04/10 00:34:52;;;;;;;3.45;0.80;;;9.90;99.90;;;;;;5452945;26;20003;-82
2024/04/10 00:37:18;;;;;;;2.25;0.60;;;9.80;99.90;;;;;;5453861;26;19999;-83
2024/04/10 00:39:43;;;;;;;3.22;0.70;;;9.80;99.90;;;;;;5453245;26;20426;-83
2024/04/10 00:42:09;;;;;;;5.55;0.80;;;9.80;99.90;;;;;;5454330;26;19995;-83
2024/04/10 00:44:46;;;;;;;4.60;0.70;;;9.80;99.90;;;;;;5455298;26;19995;-84
2024/04/10 00:47:12;;;;;;;1.65;0.57;;;9.70;99.90;;;;;;5455846;26;20001;-84
2024/04/10 00:49:37;;;;;;;2.15;0.85;;;9.70;99.90;;;;;;5453020;26;19991;-83
2024/04/10 00:52:04;;;;;;;2.30;0.88;;;9.70;99.90;;;;;;5455171;26;20005;-83
2024/04/10 00:54:34;;;;;;;2.30;0.73;;;9.70;99.90;;;;;;5447910;26;20049;-81
2024/04/10 00:56:59;;;;;;;3.35;0.70;;;9.60;99.90;;;;;;5388187;26;19999;-81
2024/04/10 00:59:25;;;;;;;2.15;0.70;;;9.70;99.90;;;;;;5387917;26;19999;-80
2024/04/10 01:01:51;;;;;;;3.60;0.60;;;9.60;99.90;;;;;;5387513;26;19992;-81
2024/04/10 01:04:16;;;;;;;4.22;1.27;;;9.60;99.90;;;;;;5419208;26;20002;-82
2024/04/10 01:06:42;;;;;;;3.60;0.90;;;9.60;99.90;;;;;;5418478;26;20011;-81
2024/04/10 01:09:08;;;;;;;4.78;0.90;;;9.50;99.90;;;;;;5387964;26;20002;-81
2024/04/10 01:11:34;;;;;;;3.85;1.65;;;9.50;99.90;;;;;;5419033;26;20467;-83
2024/04/10 01:14:00;;;;;;;3.92;0.85;;;9.50;99.90;;;;;;5419068;26;20007;-81
2024/04/10 01:16:25;;;;;;;5.45;0.85;;;9.50;99.90;;;;;;5419086;26;19995;-83
2024/04/10 01:18:51;;;;;;;1.90;0.75;;;9.40;99.90;;;;;;5387703;26;20011;-85
2024/04/10 01:21:16;;;;;;;6.10;1.02;;;9.40;99.90;;;;;;5388524;26;19991;-85
2024/04/10 01:23:42;;;;;;;5.40;0.80;;;9.40;99.90;;;;;;5418599;26;19996;-82
2024/04/10 01:26:08;;;;;;;4.88;1.15;;;9.40;99.90;;;;;;5418861;26;20006;-81
2024/04/10 01:28:33;;;;;;;3.88;1.20;;;9.40;99.90;;;;;;5387698;26;20006;-85
2024/04/10 01:30:59;;;;;;;3.53;1.00;;;9.40;99.90;;;;;;5387683;26;20011;-83
2024/04/10 01:33:24;;;;;;;4.10;0.77;;;9.40;99.90;;;;;;5387774;26;20006;-82
2024/04/10 01:35:50;;;;;;;4.40;0.90;;;9.40;99.90;;;;;;5418319;26;19999;-82
2024/04/10 01:38:16;;;;;;;2.50;0.80;;;9.40;99.90;;;;;;5417465;26;20069;-82
2024/04/10 01:40:43;;;;;;;3.08;1.10;;;9.40;99.90;;;;;;5386643;26;20007;-82
2024/04/10 01:43:08;;;;;;;2.15;0.60;;;9.50;99.90;;;;;;5418792;26;19992;-82
2024/04/10 01:45:36;;;;;;;3.88;0.80;;;9.50;99.90;;;;;;5418880;26;20046;-84
2024/04/10 01:48:02;;;;;;;7.28;1.52;;;9.50;99.90;;;;;;5387284;26;19996;-82
2024/04/10 01:50:28;;;;;;;2.10;0.75;;;9.50;99.90;;;;;;5387614;26;19992;-82
2024/04/10 01:52:54;;;;;;;6.13;1.00;;;9.60;99.90;;;;;;5386993;26;20001;-82
2024/04/10 01:55:19;;;;;;;3.65;1.10;;;9.50;99.90;;;;;;5419857;26;20011;-82
2024/04/10 01:57:45;;;;;;;3.17;1.10;;;9.50;99.90;;;;;;5454049;26;19999;-83
2024/04/10 02:01:35;;;;;;;5.85;1.00;;;9.40;99.90;;;;;;5576201;25;20309;-80
2024/04/10 02:04:00;;;;;;;3.35;0.88;;;9.50;99.90;;;;;;5506995;26;20010;-81
2024/04/10 02:06:26;;;;;;;4.97;1.17;;;9.50;99.90;;;;;;5509364;26;19989;-81
2024/04/10 02:08:51;;;;;;;4.68;1.00;;;9.40;99.90;;;;;;5507127;26;20447;-81
2024/04/10 02:11:25;;;;;;;3.50;0.93;;;9.50;99.90;;;;;;5509423;26;20001;-81
2024/04/10 02:13:50;;;;;;;2.03;0.60;;;9.40;99.90;;;;;;5508675;26;20020;-81
2024/04/10 02:16:16;;;;;;;4.00;0.90;;;9.40;99.90;;;;;;5507337;26;19998;-81
2024/04/10 02:18:42;;;;;;;3.40;0.75;;;9.40;99.90;;;;;;5508477;26;20002;-81
2024/04/10 02:21:08;;;;;;;3.80;0.80;;;9.50;99.90;;;;;;5507158;26;19998;-81
2024/04/10 02:23:33;;;;;;;3.22;0.50;;;9.40;99.90;;;;;;5509097;26;20338;-81
2024/04/10 02:26:11;;;;;;;6.35;0.82;;;9.40;99.90;;;;;;5508521;26;20013;-81
2024/04/10 02:28:36;;;;;;;2.83;0.60;;;9.40;99.90;;;;;;5509052;26;19994;-86
2024/04/10 02:31:03;;;;;;;3.88;0.65;;;9.40;99.90;;;;;;5508630;26;20070;-81
2024/04/10 02:33:33;;;;;;;3.55;0.73;;;9.40;99.90;;;;;;5508858;26;19986;-81
2024/04/10 02:35:58;;;;;;;4.10;0.90;;;9.40;99.90;;;;;;5506470;26;19997;-81
2024/04/10 02:38:24;;;;;;;2.97;1.00;;;9.50;99.90;;;;;;5506903;26;20005;-81
2024/04/10 02:40:49;;;;;;;7.05;0.90;;;9.50;99.90;;;;;;5508186;26;19997;-81
2024/04/10 02:43:15;;;;;;;8.65;1.15;;;9.50;99.90;;;;;;5508889;26;20419;-81
2024/04/10 02:45:40;;;;;;;3.17;1.25;;;9.40;99.90;;;;;;5506627;26;19994;-84
2024/04/10 02:48:06;;;;;;;3.35;0.73;;;9.40;99.90;;;;;;5508737;26;20066;-81
2024/04/10 02:50:32;;;;;;;3.65;0.73;;;9.40;99.90;;;;;;5507226;26;20005;-84
2024/04/10 02:52:58;;;;;;;4.72;0.77;;;9.40;99.90;;;;;;5506561;26;20024;-84
2024/04/10 02:55:24;;;;;;;5.43;1.10;;;9.40;99.90;;;;;;5508295;26;20521;-82
2024/04/10 02:57:49;;;;;;;3.42;1.20;;;9.40;99.90;;;;;;5507959;26;19994;-83
2024/04/10 03:00:16;;;;;;;4.18;0.90;;;9.40;99.90;;;;;;5508483;26;19990;-83
2024/04/10 03:02:42;;;;;;;4.70;0.80;;;9.50;99.90;;;;;;5506677;26;20005;-85
2024/04/10 03:05:07;;;;;;;3.65;1.00;;;9.40;99.90;;;;;;5508892;26;20073;-83
2024/04/10 03:07:34;;;;;;;4.70;0.95;;;9.40;99.90;;;;;;5507286;26;20011;-81
2024/04/10 03:09:59;;;;;;;3.78;0.82;;;9.40;99.90;;;;;;5506389;26;20296;-83
2024/04/10 03:12:26;;;;;;;6.43;0.98;;;9.40;99.90;;;;;;5493378;26;20458;-83
2024/04/10 03:14:52;;;;;;;5.30;0.90;;;9.40;99.90;;;;;;5492536;26;20079;-83
2024/04/10 03:17:17;;;;;;;3.00;0.80;;;9.40;99.90;;;;;;5491281;26;20001;-83
2024/04/10 03:19:43;;;;;;;4.93;1.10;;;9.40;99.90;;;;;;5490814;26;20009;-84
2024/04/10 03:22:09;;;;;;;1.80;0.85;;;9.40;99.90;;;;;;5491366;26;19998;-83
2024/04/10 03:24:34;;;;;;;5.00;1.20;;;9.40;99.90;;;;;;5492757;26;20001;-83
2024/04/10 03:27:00;;;;;;;5.75;0.77;;;9.40;99.90;;;;;;5490418;26;20067;-82
2024/04/10 03:29:26;;;;;;;2.72;0.80;;;9.40;99.90;;;;;;5492710;26;19990;-83
2024/04/10 03:31:53;;;;;;;2.65;0.50;;;9.40;99.90;;;;;;5490009;26;20002;-85
2024/04/10 03:34:19;;;;;;;4.05;0.80;;;9.40;99.90;;;;;;5491453;26;20005;-84
2024/04/10 03:36:44;;;;;;;3.33;0.90;;;9.30;99.90;;;;;;5490497;26;20070;-87
2024/04/10 03:39:11;;;;;;;7.03;0.85;;;9.30;99.90;;;;;;5492877;26;20424;-85
2024/04/10 03:41:37;;;;;;;4.80;1.67;;;9.30;99.90;;;;;;5493103;26;19994;-84
2024/04/10 03:44:05;;;;;;;5.28;1.25;;;9.20;99.90;;;;;;5492268;26;20491;-85
2024/04/10 03:46:32;;;;;;;7.80;1.00;;;9.20;99.90;;;;;;5491470;26;20036;-84
2024/04/10 03:48:57;;;;;;;6.85;1.08;;;9.20;99.90;;;;;;5492314;26;19994;-85
2024/04/10 03:51:23;;;;;;;3.63;0.80;;;9.10;99.90;;;;;;5491249;26;19994;-85
2024/04/10 03:53:49;;;;;;;4.57;0.85;;;9.10;99.90;;;;;;5490349;26;20005;-86
2024/04/10 03:56:14;;;;;;;3.30;1.00;;;9.10;99.90;;;;;;5490936;26;20489;-85
2024/04/10 03:58:40;;;;;;;3.53;0.80;;;9.10;99.90;;;;;;5492653;26;20009;-85
2024/04/10 04:01:05;;;;;;;5.90;1.00;;;9.00;99.90;;;;;;5491187;26;20062;-85
2024/04/10 04:03:33;;;;;;;4.15;0.80;;;9.00;99.90;;;;;;5490985;26;19998;-85
2024/04/10 04:06:00;;;;;;;2.72;0.95;;;9.00;99.90;;;;;;5490400;26;20030;-85
2024/04/10 04:08:27;;;;;;;4.28;0.82;;;8.90;99.90;;;;;;5490722;26;20009;-84
2024/04/10 04:10:55;;;;;;;1.77;0.70;;;8.90;99.90;;;;;;5490173;26;19996;-84
2024/04/10 04:13:21;;;;;;;3.22;0.90;;;8.90;99.90;;;;;;5490752;26;20006;-85
2024/04/10 04:15:48;;;;;;;5.55;0.82;;;8.90;99.90;;;;;;5491868;26;20005;-86
2024/04/10 04:18:13;;;;;;;3.67;0.90;;;8.80;99.90;;;;;;5490764;26;20002;-84
2024/04/10 04:20:39;;;;;;;4.50;0.90;;;8.80;99.90;;;;;;5492420;26;20005;-84
2024/04/10 04:23:05;;;;;;;5.07;1.02;;;8.70;99.90;;;;;;5489911;26;20051;-85
2024/04/10 04:25:34;;;;;;;3.85;0.80;;;8.70;99.90;;;;;;5490700;26;19998;-84
2024/04/10 04:28:00;;;;;;;3.15;0.75;;;8.70;99.90;;;;;;5491643;26;19990;-85
2024/04/10 04:30:27;;;;;;;2.65;0.60;;;8.60;99.90;;;;;;5490396;26;20020;-84
2024/04/10 04:32:53;;;;;;;8.48;1.05;;;8.60;99.90;;;;;;5489587;26;19994;-82
2024/04/10 04:35:19;;;;;;;5.03;0.90;;;8.60;99.90;;;;;;5490249;26;19994;-84
2024/04/10 04:37:53;;;;;;;5.50;1.23;;;8.60;99.90;;;;;;5490040;26;20316;-86
2024/04/10 04:40:20;;;;;;;4.22;1.10;;;8.60;99.90;;;;;;5489903;26;20008;-83
2024/04/10 04:42:45;;;;;;;3.08;0.90;;;8.60;99.90;;;;;;5489886;26;20029;-84
2024/04/10 04:45:11;;;;;;;2.95;1.10;;;8.60;99.90;;;;;;5490220;26;19994;-84
2024/04/10 04:47:37;;;;;;;5.55;1.00;;;8.50;99.90;;;;;;5490209;26;20427;-81
2024/04/10 04:50:03;;;;;;;5.57;1.10;;;8.50;99.90;;;;;;5489365;26;20002;-81
2024/04/10 04:52:29;;;;;;;5.60;1.25;;;8.50;99.90;;;;;;5489964;26;20026;-82
2024/04/10 04:54:54;;;;;;;2.45;1.10;;;8.40;99.90;;;;;;5488895;26;20196;-83
2024/04/10 04:57:20;;;;;;;3.53;1.20;;;8.40;99.90;;;;;;5497606;26;20017;-82
2024/04/10 04:59:46;;;;;;;3.40;1.30;;;8.40;99.90;;;;;;5489258;26;20331;-84
2024/04/10 05:02:12;;;;;;;7.85;2.38;;;8.40;99.90;;;;;;5489151;26;20328;-81
2024/04/10 05:07:23;;;;;;;9.15;1.00;;;8.40;99.90;;;;;;5492156;26;20071;-82
2024/04/10 05:09:50;;;;;;;6.90;0.95;;;8.50;99.90;;;;;;5458781;26;19998;-84
2024/04/10 05:12:16;;;;;;;4.03;1.20;;;8.50;99.90;;;;;;5489133;26;19998;-81
2024/04/10 05:14:46;;;;;;;3.28;1.17;;;8.40;99.90;;;;;;5490482;26;20012;-83
2024/04/10 05:17:12;;;;;;;4.35;0.90;;;8.40;99.90;;;;;;5456192;26;20021;-83
2024/04/10 05:19:37;;;;;;;4.80;1.02;;;8.50;99.90;;;;;;5490687;26;20070;-84
2024/04/10 05:22:04;;;;;;;5.28;0.85;;;8.40;99.90;;;;;;5487991;26;20074;-84
2024/04/10 05:24:29;;;;;;;3.80;0.85;;;8.40;99.90;;;;;;5488540;26;20034;-82
2024/04/10 05:26:55;;;;;;;3.58;0.90;;;8.40;99.90;;;;;;5489401;26;20009;-84
2024/04/10 05:29:20;;;;;;;4.82;1.08;;;8.40;99.90;;;;;;5488207;26;20466;-84
2024/04/10 05:31:46;;;;;;;4.05;0.70;;;8.50;99.90;;;;;;5487944;26;20092;-84
2024/04/10 05:34:12;;;;;;;3.55;0.80;;;8.40;99.90;;;;;;5487181;26;19990;-82
2024/04/10 05:36:37;;;;;;;2.45;0.77;;;8.40;99.90;;;;;;5485283;26;20447;-83
2024/04/10 05:39:03;;;;;;;4.93;1.00;;;8.40;99.90;;;;;;5487034;26;19994;-83
2024/04/10 05:41:29;;;;;;;6.97;0.75;;;8.40;99.90;;;;;;5488651;26;20074;-80
2024/04/10 05:43:54;;;;;;;3.13;0.85;;;8.50;99.90;;;;;;5487445;26;20423;-81
2024/04/10 05:46:20;;;;;;;4.43;0.90;;;8.50;99.90;;;;;;5487735;26;20014;-81
2024/04/10 05:48:45;;;;;;;3.30;1.10;;;8.40;99.90;;;;;;5486746;26;19998;-79
2024/04/10 05:51:11;;;;;;;6.72;1.00;;;8.50;99.90;;;;;;5487724;26;20010;-79
2024/04/10 05:53:37;;;;;;;2.63;0.93;;;8.40;99.90;;;;;;5487193;26;20015;-83
2024/04/10 05:56:06;;;;;;;5.10;1.20;;;8.40;99.90;;;;;;5489207;26;20010;-82
2024/04/10 05:58:35;;;;;;;1.60;0.85;;;8.40;99.90;;;;;;5490210;26;20005;-82
2024/04/10 06:01:08;;;;;;;5.50;0.98;;;8.50;99.90;;;;;;5484648;26;20459;-84
2024/04/10 06:03:33;;;;;;;6.95;1.17;;;8.50;99.90;;;;;;5487049;26;20005;-83
2024/04/10 06:06:12;;;;;;;6.63;0.88;;;8.50;99.90;;;;;;5477490;26;20041;-84
2024/04/10 06:08:37;;;;;;;4.72;0.85;;;8.50;99.90;;;;;;5478660;26;20338;-82
2024/04/10 06:11:03;;;;;;;7.32;0.90;;;8.50;99.90;;;;;;5486365;26;19998;-82
2024/04/10 06:13:29;;;;;;;4.22;0.98;;;8.50;99.90;;;;;;5489086;26;20070;-84
2024/04/10 06:15:58;;;;;;;4.82;1.20;;;8.50;99.90;;;;;;5487171;26;19998;-83
2024/04/10 06:18:24;;;;;;;6.90;0.80;;;8.60;99.90;;;;;;5487119;26;20024;-84
2024/04/10 06:21:05;;;;;;;4.55;0.90;;;8.60;99.90;;;;;;5487025;26;20002;-82
2024/04/10 06:23:32;;;;;;;4.77;0.90;;;8.60;99.90;;;;;;5489569;26;20074;-91
2024/04/10 06:25:58;;;;;;;4.10;0.98;;;8.60;99.90;;;;;;5468812;26;20002;-85
2024/04/10 06:28:27;;;;;;;2.58;0.73;;;8.70;99.90;;;;;;5487760;26;20002;-84
2024/04/10 06:31:04;;;;;;;4.93;0.60;;;8.70;99.90;;;;;;5487075;26;20443;-87
2024/04/10 06:33:31;;;;;;;3.75;0.77;;;8.70;99.90;;;;;;5487455;26;19998;-86
2024/04/10 06:36:04;;;;;;;4.78;0.93;;;8.70;99.90;;;;;;5478946;26;20041;-84
2024/04/10 06:38:34;;;;;;;8.45;0.93;;;8.70;99.90;;;;;;5478282;26;19998;-82
2024/04/10 06:41:01;;;;;;;2.63;0.88;;;8.80;99.90;;;;;;5488249;26;20015;-85
2024/04/10 06:43:27;;;;;;;7.00;1.08;;;8.80;99.90;;;;;;5488620;26;20443;-84
2024/04/10 06:46:05;;;;;;;4.70;0.88;;;8.90;99.90;;;;;;5489541;26;19998;-85
2024/04/10 06:48:30;;;;;;;7.03;0.90;;;8.90;99.90;;;;;;5491352;26;20482;-85
2024/04/10 06:50:59;;;;;;;7.72;1.02;;;8.90;99.90;;;;;;5492224;26;20051;-90
2024/04/10 06:53:25;;;;;;;4.50;1.00;;;8.90;99.90;;;;;;5491399;26;19997;-86
2024/04/10 06:56:01;;;;;;;6.40;1.02;;;9.00;99.90;;;;;;5473766;26;20007;-87
2024/04/10 06:58:29;;;;;;;4.00;0.80;;;9.00;99.90;;;;;;5490441;26;20071;-88
2024/04/10 07:00:58;;;;;;;11.18;1.85;;;9.00;99.90;;;;;;5490287;26;20002;-85
2024/04/10 07:03:28;;;;;;;2.70;0.90;;;9.10;99.90;;;;;;5492489;26;20443;-84
2024/04/10 07:06:10;;;;;;;4.85;1.35;;;9.10;99.90;;;;;;5484263;26;20006;-83
2024/04/10 07:08:37;;;;;;;5.00;1.27;;;9.10;99.90;;;;;;5482236;26;20005;-83
2024/04/10 07:11:04;;;;;;;6.03;0.80;;;9.10;99.90;;;;;;5490344;26;19998;-87
2024/04/10 07:13:31;;;;;;;6.18;1.02;;;9.00;99.90;;;;;;5490896;26;20010;-86
2024/04/10 07:15:59;;;;;;;7.57;1.08;;;9.10;99.90;;;;;;5492266;26;20009;-90
2024/04/10 07:18:25;;;;;;;7.93;1.02;;;9.10;99.90;;;;;;5490443;26;20009;-90
2024/04/10 07:21:17;;;;;;;4.63;1.10;;;9.10;99.90;;;;;;5490515;26;20014;-89
2024/04/10 07:23:45;;;;;;;3.22;1.08;;;9.20;99.90;;;;;;5489022;26;20002;-88
2024/04/10 07:26:13;;;;;;;2.75;0.60;;;9.20;99.90;;;;;;5489506;26;20009;-82
2024/04/10 07:28:43;;;;;;;6.70;1.15;;;9.20;99.90;;;;;;5491524;26;20070;-80
2024/04/10 07:31:13;;;;;;;7.38;1.30;;;9.20;99.90;;;;;;5491032;26;19994;-85
2024/04/10 07:33:39;;;;;;;9.60;1.67;;;9.30;99.90;;;;;;5491685;26;19998;-83
2024/04/10 07:36:13;;;;;;;3.50;1.02;;;9.30;99.90;;;;;;5480783;26;20104;-81
2024/04/10 07:38:40;;;;;;;4.90;1.00;;;9.40;99.90;;;;;;5483402;26;19998;-81
2024/04/10 07:41:06;;;;;;;7.25;1.30;;;9.40;99.90;;;;;;5490703;26;20324;-81
2024/04/10 07:43:34;;;;;;;8.73;1.05;;;9.50;99.90;;;;;;5491670;26;20013;-81
2024/04/10 07:46:16;;;;;;;5.65;1.75;;;9.50;99.90;;;;;;5491035;26;20006;-82
2024/04/10 07:48:44;;;;;;;8.43;1.02;;;9.50;99.90;;;;;;5491498;26;19994;-81
2024/04/10 07:51:12;;;;;;;6.55;1.00;;;9.60;99.90;;;;;;5491053;26;20006;-81
2024/04/10 07:53:40;;;;;;;6.93;1.00;;;9.60;99.90;;;;;;5489637;26;20019;-83
2024/04/10 07:56:10;;;;;;;7.13;0.85;;;9.70;99.90;;;;;;5488923;26;19998;-82
2024/04/10 07:58:36;;;;;;;3.53;0.93;;;9.70;99.90;;;;;;5489266;26;20422;-84
2024/04/10 08:01:03;;;;;;;8.63;1.33;;;9.80;99.90;;;;;;5490628;26;20010;-80
2024/04/10 08:03:30;;;;;;;4.93;1.02;;;9.80;99.90;;;;;;5491281;26;20066;-80
2024/04/10 08:05:57;;;;;;;7.28;0.90;;;9.80;99.90;;;;;;5488520;26;19998;-79
2024/04/10 08:08:23;;;;;;;5.43;1.02;;;9.90;99.90;;;;;;5489217;26;20001;-79
2024/04/10 08:10:57;;;;;;;4.57;1.20;;;9.90;99.90;;;;;;5488825;26;20451;-79
2024/04/10 08:13:22;;;;;;;5.53;1.73;;;9.90;99.90;;;;;;5489478;26;20439;-79
2024/04/10 08:16:04;;;;;;;5.60;0.85;;;9.90;99.90;;;;;;5488652;26;20069;-82
2024/04/10 08:18:31;;;;;;;6.15;0.88;;;9.90;99.90;;;;;;5490760;26;20002;-82
2024/04/10 08:21:00;;;;;;;6.60;0.95;;;10.00;99.90;;;;;;5488889;26;19998;-83
2024/04/10 08:23:28;;;;;;;8.07;1.10;;;10.00;99.90;;;;;;5490915;26;20435;-81
2024/04/10 08:25:54;;;;;;;12.35;1.80;;;10.00;99.90;;;;;;5488612;26;20017;-82
2024/04/10 08:28:20;;;;;;;6.97;1.20;;;10.10;99.90;;;;;;5489214;26;20006;-82
2024/04/10 08:30:47;;;;;;;14.25;1.98;;;10.10;99.90;;;;;;5490851;26;19994;-88
2024/04/10 08:33:13;;;;;;;8.52;1.33;;;10.30;99.90;;;;;;5490003;26;20006;-93
2024/04/10 08:35:40;;;;;;;9.05;1.60;;;10.30;99.90;;;;;;5486731;26;19994;-96
2024/04/10 08:38:06;;;;;;;7.10;1.20;;;10.30;99.90;;;;;;5473111;26;20017;-89
2024/04/10 08:40:37;;;;;;;12.55;1.45;;;10.40;99.90;;;;;;5489284;26;19998;-91
2024/04/10 08:43:06;;;;;;;7.07;0.82;;;10.50;99.90;;;;;;5490516;26;20025;-94
2024/04/10 08:45:32;;;;;;;8.27;1.33;;;10.50;99.90;;;;;;5491751;26;19994;-95
2024/04/10 08:48:00;;;;;;;9.73;1.20;;;10.60;99.90;;;;;;5489587;26;20036;-93
2024/04/10 08:50:27;;;;;;;8.07;1.30;;;10.60;99.90;;;;;;5489806;26;20053;-94
2024/04/10 08:52:53;;;;;;;6.75;1.05;;;10.70;99.90;;;;;;5489738;26;20030;-88
2024/04/10 08:55:19;;;;;;;5.95;1.40;;;10.90;99.90;;;;;;5464733;26;20013;-91
2024/04/10 08:57:45;;;;;;;10.18;1.60;;;11.10;99.90;;;;;;5469861;26;19998;-94
2024/04/10 09:00:11;;;;;;;6.63;0.93;;;11.20;99.60;;;;;;5489773;26;19998;-92
2024/04/10 09:02:37;;;;;;;10.82;1.23;;;11.30;98.70;;;;;;5489708;26;20050;-89
2024/04/10 09:05:03;;;;;;;3.08;0.75;;;11.30;98.40;;;;;;5490397;26;20432;-88
2024/04/10 09:07:29;;;;;;;5.82;0.90;;;11.30;98.00;;;;;;5469122;26;19998;-89
2024/04/10 09:09:54;;;;;;;6.78;1.27;;;11.40;98.40;;;;;;5487168;26;19997;-87
2024/04/10 09:12:24;;;;;;;7.13;1.48;;;11.40;98.60;;;;;;5489045;26;20018;-88
2024/04/10 09:14:49;;;;;;;6.38;1.20;;;11.50;98.80;;;;;;5490133;26;19994;-90
2024/04/10 09:17:17;;;;;;;7.97;1.55;;;11.60;98.90;;;;;;5488799;26;20006;-79
2024/04/10 09:19:42;;;;;;;10.45;1.40;;;11.80;99.50;;;;;;5489562;26;20010;-85
2024/04/10 09:22:10;;;;;;;4.70;1.20;;;12.00;99.40;;;;;;5488719;26;20297;-85
2024/04/10 09:24:36;;;;;;;4.00;1.13;;;12.10;98.50;;;;;;5471776;26;20026;-85
2024/04/10 09:27:10;;;;;;;8.38;1.33;;;12.20;98.10;;;;;;5487582;26;20001;-87
2024/04/10 09:29:35;;;;;;;3.58;1.30;;;12.30;97.60;;;;;;5488697;26;20030;-87
2024/04/10 09:32:08;;;;;;;5.55;0.98;;;12.40;97.40;;;;;;5489724;26;20002;-81
2024/04/10 09:34:37;;;;;;;3.28;0.80;;;12.40;96.90;;;;;;5488701;26;19998;-86
2024/04/10 09:37:07;;;;;;;9.75;0.82;;;12.40;96.90;;;;;;5469525;26;20071;-87
2024/04/10 09:39:33;;;;;;;6.07;0.93;;;12.40;97.20;;;;;;5489627;26;20024;-86
2024/04/10 09:41:59;;;;;;;4.07;1.05;;;12.40;96.70;;;;;;5487067;26;19998;-86
2024/04/10 09:44:29;;;;;;;6.38;1.45;;;12.30;96.60;;;;;;5481776;26;19994;-93
2024/04/10 09:47:00;;;;;;;6.85;1.25;;;12.20;97.30;;;;;;5484155;26;20012;-90
2024/04/10 09:49:41;;;;;;;4.82;0.98;;;12.30;97.30;;;;;;5488423;26;20331;-88
2024/04/10 09:52:10;;;;;;;5.35;1.17;;;12.30;97.80;;;;;;5487645;26;20010;-88
2024/04/10 09:54:37;;;;;;;4.15;1.02;;;12.30;97.80;;;;;;5472794;26;20003;-93
2024/04/10 09:57:04;;;;;;;6.72;1.00;;;12.40;97.20;;;;;;5487296;26;20092;-85
2024/04/10 09:59:30;;;;;;;5.80;0.98;;;12.40;96.50;;;;;;5487588;26;19998;-90
2024/04/10 10:02:08;;;;;;;8.70;1.08;;;12.40;95.90;;;;;;5492062;26;20008;-94
2024/04/10 10:04:38;;;;;;;4.05;0.90;;;12.40;96.00;;;;;;5488416;26;20010;-96
2024/04/10 10:07:04;;;;;;;6.88;1.17;;;12.40;96.00;;;;;;5469487;26;20025;-92
2024/04/10 10:09:29;;;;;;;4.18;1.00;;;12.40;95.90;;;;;;5492114;26;19995;-91
2024/04/10 10:11:59;;;;;;;7.18;1.05;;;12.50;96.40;;;;;;5492270;26;20482;-96
2024/04/10 10:14:25;;;;;;;6.78;1.10;;;12.50;96.70;;;;;;5492712;26;20023;-95
2024/04/10 10:16:51;;;;;;;6.57;1.30;;;12.60;96.50;;;;;;5494656;26;19998;-95
2024/04/10 10:19:21;;;;;;;4.57;1.00;;;12.60;95.50;;;;;;5494656;26;20006;-94
2024/04/10 10:21:48;;;;;;;7.13;1.35;;;12.60;95.40;;;;;;5494472;26;20034;-95
2024/04/10 10:24:14;;;;;;;5.50;1.00;;;12.70;95.80;;;;;;5481354;26;19999;-91
2024/04/10 10:26:40;;;;;;;3.38;1.02;;;12.70;95.00;;;;;;5487265;26;20017;-96
2024/04/10 10:29:08;;;;;;;3.85;0.88;;;12.60;95.10;;;;;;5492690;26;20439;-82
2024/04/10 10:31:34;;;;;;;4.10;0.90;;;12.70;95.90;;;;;;5492204;26;20014;-83
2024/04/10 10:34:13;;;;;;;3.90;1.10;;;12.70;95.50;;;;;;5492128;26;20434;-82
2024/04/10 10:36:39;;;;;;;4.90;1.10;;;12.80;94.40;;;;;;5473791;26;19999;-83
2024/04/10 10:39:10;;;;;;;5.32;0.95;;;12.90;95.90;;;;;;5488946;26;20016;-87
2024/04/10 10:41:36;;;;;;;6.32;1.00;;;13.00;95.30;;;;;;5491829;26;19998;-89
2024/04/10 10:44:03;;;;;;;7.00;1.10;;;13.00;95.60;;;;;;5491031;26;20017;-84
2024/04/10 10:46:28;;;;;;;7.35;0.95;;;13.20;95.80;;;;;;5490677;26;20009;-88
2024/04/10 10:48:54;;;;;;;2.75;1.10;;;13.30;95.20;;;;;;5490224;26;19999;-82
2024/04/10 10:51:20;;;;;;;5.22;0.82;;;13.40;95.90;;;;;;5490456;26;19994;-82
2024/04/10 10:53:47;;;;;;;4.63;1.02;;;13.50;95.10;;;;;;5490345;26;19998;-83
2024/04/10 10:56:30;;;;;;;8.25;1.17;;;13.50;94.20;;;;;;5490171;26;19998;-90
2024/04/10 10:59:06;;;;;;;;;;;13.30;94.20;;;;;;5492368;26;20487;-94
2024/04/10 11:01:34;;;;;;;5.70;1.00;;;13.30;94.40;;;;;;5490654;26;19924;-85
2024/04/10 11:04:18;;;;;;;3.78;1.15;;;13.40;94.00;;;;;;5491877;26;19998;-84
2024/04/10 11:06:45;;;;;;;3.58;1.15;;;13.30;93.10;;;;;;5472429;26;20005;-93
2024/04/10 11:09:12;;;;;;;5.47;0.90;;;13.40;93.50;;;;;;5460451;26;20001;-92
2024/04/10 11:11:39;;;;;;;1.98;0.85;;;13.50;93.80;;;;;;5490589;26;20009;-88
2024/04/10 11:14:05;;;;;;;6.38;0.95;;;13.60;93.70;;;;;;5490189;26;19998;-96
2024/04/10 11:16:31;;;;;;;6.13;1.15;;;13.60;93.50;;;;;;5492775;26;20009;-90
2024/04/10 11:18:58;;;;;;;3.22;1.00;;;13.70;93.30;;;;;;5490750;26;19998;-89
2024/04/10 11:21:24;;;;;;;5.78;0.93;;;13.80;91.90;;;;;;5491187;26;20005;-88
2024/04/10 11:23:50;;;;;;;4.25;1.02;;;13.80;90.70;;;;;;5489547;26;20070;-89
2024/04/10 11:26:15;;;;;;;4.20;1.00;;;13.80;90.40;;;;;;5492340;26;20009;-92
2024/04/10 11:28:41;;;;;;;3.65;0.70;;;13.80;90.00;;;;;;5484861;26;20100;-93
2024/04/10 11:31:07;;;;;;;5.80;0.70;;;13.80;90.00;;;;;;5490854;26;20002;-90
2024/04/10 11:33:33;;;;;;;4.22;0.88;;;13.80;90.40;;;;;;5491162;26;20042;-87
2024/04/10 11:35:59;;;;;;;3.08;0.80;;;13.70;90.10;;;;;;5482652;26;20455;-84
2024/04/10 11:38:25;;;;;;;2.40;0.77;;;13.70;89.80;;;;;;5478706;26;20003;-84
2024/04/10 11:40:51;;;;;;;2.70;0.60;;;13.80;90.40;;;;;;5491271;26;20013;-88
2024/04/10 11:43:16;;;;;;;4.30;0.98;;;13.80;89.20;;;;;;5492312;26;20005;-86
2024/04/10 11:45:43;;;;;;;6.35;0.98;;;13.80;89.80;;;;;;5490147;26;20002;-85
2024/04/10 11:48:09;;;;;;;5.88;1.23;;;13.80;91.00;;;;;;5489794;26;20364;-87
2024/04/10 11:50:35;;;;;;;5.60;0.75;;;13.90;90.10;;;;;;5490118;26;20068;-91
2024/04/10 11:53:00;;;;;;;6.60;0.85;;;14.00;89.50;;;;;;5489725;26;20006;-87
2024/04/10 11:55:28;;;;;;;4.88;0.88;;;14.10;89.80;;;;;;5490383;26;20065;-85
2024/04/10 11:57:54;;;;;;;5.30;0.98;;;14.30;90.20;;;;;;5488765;26;20017;-89
2024/04/10 12:00:20;;;;;;;5.32;0.98;;;14.40;89.80;;;;;;5489137;26;19997;-86
2024/04/10 12:02:45;;;;;;;4.38;1.10;;;14.30;87.20;;;;;;5490119;26;20121;-87
2024/04/10 12:05:11;;;;;;;4.18;1.42;;;14.30;88.20;;;;;;5491412;26;19994;-87
2024/04/10 12:07:36;;;;;;;3.65;0.80;;;14.40;88.10;;;;;;5471536;26;20035;-83
2024/04/10 12:10:04;;;;;;;2.70;0.82;;;14.50;86.60;;;;;;5483162;26;20047;-92
2024/04/10 12:12:30;;;;;;;3.22;0.77;;;14.50;86.80;;;;;;5481631;26;19994;-93
2024/04/10 12:14:56;;;;;;;3.30;0.75;;;14.70;88.00;;;;;;5490895;26;20096;-93
2024/04/10 12:17:22;;;;;;;5.63;1.10;;;14.90;88.20;;;;;;5489197;26;20006;-88
2024/04/10 12:19:47;;;;;;;3.38;1.00;;;15.10;86.80;;;;;;5489719;26;19998;-88
2024/04/10 12:22:13;;;;;;;4.10;0.90;;;15.30;85.30;;;;;;5491097;26;20029;-94
2024/04/10 12:24:38;;;;;;;3.83;1.00;;;15.50;86.40;;;;;;5476918;26;20017;-91
2024/04/10 12:27:04;;;;;;;5.20;1.02;;;15.70;83.60;;;;;;5489019;26;20079;-86
2024/04/10 12:29:31;;;;;;;1.80;0.57;;;15.80;82.60;;;;;;5489737;26;20002;-83
2024/04/10 12:31:58;;;;;;;5.05;0.88;;;16.20;85.00;;;;;;5488831;26;19998;-90
2024/04/10 12:34:24;;;;;;;1.40;0.70;;;16.70;85.30;;;;;;5483538;26;20067;-91
2024/04/10 12:39:34;;;;;;;3.03;1.00;;;17.30;85.00;;;;;;5491783;26;20004;-92
2024/04/10 12:41:59;;;;;;;2.55;0.80;;;17.50;83.40;;;;;;5488744;26;20014;-88
2024/04/10 12:44:25;;;;;;;2.40;0.52;;;17.50;80.90;;;;;;5489503;26;20050;-93
2024/04/10 12:46:55;;;;;;;5.40;1.40;;;17.40;81.90;;;;;;5490686;26;20037;-92
2024/04/10 12:49:21;;;;;;;4.35;1.27;;;17.50;81.80;;;;;;5490333;26;19994;-90
2024/04/10 12:51:47;;;;;;;3.45;0.85;;;17.20;79.90;;;;;;5491458;26;20016;-84
2024/04/10 12:54:13;;;;;;;3.78;1.15;;;16.90;79.90;;;;;;5489853;26;19998;-87
2024/04/10 12:56:39;;;;;;;4.93;0.85;;;16.60;79.80;;;;;;5488725;26;19999;-87
2024/04/10 12:59:05;;;;;;;6.22;1.00;;;16.40;79.90;;;;;;5488701;26;20016;-83